Terminal Aerodrome Forecast
Issued by NWS Charleston, SC

Home | Current Version | Previous Version | Text Only | Print | Product List | Glossary On
Versions: 1 2 3 4 5 6 7 8 9 10 11 12 13 14 15 16 17 18 19 20 21 22 23 24 25
000
FTUS42 KCHS 312300
TAFCHS
TAF
KCHS 312331Z 0100/0124 VRB02KT P6SM VCSH SCT060 BKN120
     FM010700 27009KT P6SM SCT050 BKN120
     FM011000 27012G17KT P6SM BKN035
     FM011330 27018G26KT P6SM BKN035
     FM011600 29020G30KT P6SM VCSH SCT025 BKN035=

USA.gov is the U.S. government's official web portal to all federal, state and local government web resources and services.